首页
METAR-TAF:

METAR-TAF

机场 :

塔尔萨国际机场

塔爾薩, 奧克拉荷馬州, 美国

纬度: 36-11-51N, 经度: 095-53-11W, 海拔: 206米

当前天气观测

该预报发布于50分钟前的11:53 UTC
风速11节,风向
温度 25°C
湿度 65%
气压 1017 hPa
能見度: 16.1公里
散云层高于15000英尺

METAR: KTUL 221153Z 17011KT 10SM SCT150 25/18 A3003 RMK AO2 SLP160 T02500183 10278 20250 58005

时间: 07:43 (12:43 UTC)

预报

该预报发布于1小时和23分钟前的11:20 UTC
预报有效从22日的 12点(UTC)到 23日的 12点(UTC)
风速10节,风向
能見度: 10公里
少量云层高于5000英尺
散云层高于25000英尺
从 22日的 1400点(UTC)
风速15节,风向南转西南,有时为21节阵风
能見度: 10公里
散云层高于5000英尺
散云层高于25000英尺
从 23日的 0200点(UTC)
风速11节,风向
能見度: 10公里
散云层高于10000英尺
多云层高于25000英尺

TAF: KTUL 221120Z 2212/2312 18010KT P6SM FEW050 SCT250 FM221400 20015G21KT P6SM SCT050 SCT250 FM230200 18011KT P6SM SCT100 BKN250

超过4000个机场的气象观测和天气预报(METAR&TAF报告)。

可查询的气象台以黄色和红色小点在地图上表示。

将鼠标移到小点上方,可查看气象台名称。

然后点击查看天气观测和预报。

如需切换地图:点击带黑十字的绿色按钮放大地图;点击带横线的绿色按钮缩小地图;或者点击绿色箭头查看邻近地区的地图。


METAR-TAF: